Airfield :
LOGIN :

Register | Disclaimer

   EN    FR    IT 

 










Legend :    VFR   Marginal VFR   IFR   Intensive IFR   Very Intensive IFR
Visi :
Ceiling :
>= 8 km
>= 3000ft
5 to 8 km
1000 to 3000 ft
1500m to 5 km
500 to 1000 ft
800 to 1500m
200 to 500 ft
< 800m
< 200 ft
Symbols :   Thunderstorms  Fog  Heavy snow  Heavy precipitations  Wind > 20 kt
SIGMETs :     Misc.  Thunderstorms  Icing  Turbulence  Mountain Waves  Volcanic Ashes






- Airport Elevation : 556 ft


ESMV - Hasghult

CURRENT METAR :
  • 230050Z AUTO 25004KT 9999 OVC052/// 14/13 Q1013

EXPIRED METARs :
  • 230020Z AUTO 26004KT 9999 FEW031/// SCT052/// 14/13 Q1013
  • 222350Z AUTO 25005KT 9999 BKN016/// BKN041/// 14/13 Q1013
  • 222320Z AUTO 25007KT 9999 -SHRA FEW010/// BKN015/// 15/14 Q1013
  • 222250Z AUTO 24005KT 9999 OVC019/// 15/14 Q1013
  • 222220Z AUTO 25006KT 6000 FEW007/// OVC012/// 15/14 Q1013
  • 222150Z AUTO 24008KT 9999 BKN004/// BKN009/// OVC013/// 16/15 Q1012
  • 222120Z AUTO 18003KT 150V210 9999 -SHRA BKN014/// OVC023/// 17/17 Q1012
  • 222050Z AUTO VRB01KT 9999 SCT008/// OVC015/// 17/16 Q1012
  • 222020Z AUTO VRB01KT 9999 -SHRA OVC016/// 17/17 Q1012

Expired Forecast.



MET'MAP, your aeronautical weather chart ! - Copyright ORBIFLY December 2007 - Disclaimer

ORBIFLY MET'MAP TEAM :

Programming & Development : Alexandra Zaïnal
Original concept : Baudouin d'Aumeries
Technical & hardware support : Manuel Goepfert
Assistance : Marc-Olivier Méhu




SOURCES & CREDITS :

   NOAA